Time;durP1;ratioP1;P1;durP2;ratioP2;P2;SDS_P1;SDS_P2;PMS_P1;PMS_P2;Temp;Humidity;BMP_temperature;BMP_pressure;BME280_temperature;BME280_humidity;BME280_pressure;Samples;Min_cycle;Max_cycle;Signal;HPM_P1;HPM_P2
2022/05/11 00:01:52;;;;;;;1.05;0.60;;;20.20;61.70;;;;;;5013890;28;20492;-75
2022/05/11 00:04:18;;;;;;;1.77;0.90;;;20.20;61.70;;;;;;5014843;28;20022;-74
2022/05/11 00:06:43;;;;;;;1.85;0.88;;;20.20;61.70;;;;;;4997397;28;20033;-75
2022/05/11 00:09:10;;;;;;;1.00;0.60;;;20.20;61.70;;;;;;5012640;28;20037;-74
2022/05/11 00:11:36;;;;;;;1.10;0.73;;;20.10;61.60;;;;;;4997248;28;20018;-74
2022/05/11 00:14:02;;;;;;;1.98;1.00;;;20.10;61.60;;;;;;5013614;28;20022;-74
2022/05/11 00:16:28;;;;;;;1.10;0.90;;;20.10;61.70;;;;;;4980905;28;20036;-74
2022/05/11 00:18:53;;;;;;;1.88;0.70;;;20.10;61.60;;;;;;5013487;28;20037;-74
2022/05/11 00:21:19;;;;;;;1.33;0.55;;;20.10;61.70;;;;;;5013535;28;20391;-74
2022/05/11 00:23:45;;;;;;;1.20;0.63;;;20.10;61.60;;;;;;4997176;28;20045;-74
2022/05/11 00:26:11;;;;;;;1.25;0.68;;;20.10;61.60;;;;;;5013166;28;20411;-74
2022/05/11 00:28:36;;;;;;;1.55;0.80;;;20.10;61.60;;;;;;5013410;28;20528;-74
2022/05/11 00:31:02;;;;;;;1.05;0.70;;;20.10;61.70;;;;;;5014297;28;20033;-74
2022/05/11 00:33:28;;;;;;;0.90;0.50;;;20.10;61.60;;;;;;5013295;28;20507;-74
2022/05/11 00:35:53;;;;;;;1.40;0.70;;;20.10;61.60;;;;;;5013082;28;20449;-74
2022/05/11 00:38:22;;;;;;;1.00;0.70;;;20.10;61.60;;;;;;5014500;28;20033;-75
2022/05/11 00:40:53;;;;;;;1.15;0.57;;;20.10;61.60;;;;;;4996785;28;20296;-74
2022/05/11 00:43:36;;;;;;;1.27;0.57;;;20.10;61.70;;;;;;4997033;28;20100;-74
2022/05/11 00:46:23;;;;;;;0.90;0.52;;;20.10;61.50;;;;;;5012851;28;20018;-74
2022/05/11 00:51:36;;;;;;;1.33;0.80;;;20.10;61.70;;;;;;5013212;28;20029;-74
2022/05/11 00:54:02;;;;;;;1.40;0.60;;;20.10;61.70;;;;;;4996499;28;20022;-74
2022/05/11 00:56:28;;;;;;;1.73;0.70;;;20.00;61.70;;;;;;4996658;28;20024;-74
2022/05/11 00:58:58;;;;;;;1.92;0.90;;;20.00;61.60;;;;;;4996445;28;20037;-74
2022/05/11 01:01:24;;;;;;;1.63;0.80;;;20.00;61.60;;;;;;4996652;28;20084;-74
2022/05/11 01:03:53;;;;;;;0.90;0.68;;;20.00;61.60;;;;;;4996199;28;20038;-74
2022/05/11 01:06:19;;;;;;;1.88;1.13;;;20.00;61.60;;;;;;4996432;28;20018;-74
2022/05/11 01:08:44;;;;;;;0.90;0.73;;;20.00;61.60;;;;;;5013598;28;20113;-74
2022/05/11 01:11:10;;;;;;;1.33;0.75;;;20.00;61.60;;;;;;5013681;28;20022;-74
2022/05/11 01:13:37;;;;;;;1.95;0.90;;;20.00;61.60;;;;;;5012438;28;20396;-74
2022/05/11 01:16:03;;;;;;;1.48;0.70;;;20.00;61.60;;;;;;5012457;28;20038;-74
2022/05/11 01:18:29;;;;;;;2.63;0.90;;;20.00;61.70;;;;;;5012329;28;20069;-74
2022/05/11 01:20:55;;;;;;;0.85;0.50;;;20.00;61.60;;;;;;4995923;28;20029;-74
2022/05/11 01:23:36;;;;;;;1.48;0.70;;;20.00;61.50;;;;;;4995724;28;20030;-74
2022/05/11 01:26:02;;;;;;;2.45;0.82;;;20.00;61.40;;;;;;4996716;28;20101;-74
2022/05/11 01:28:28;;;;;;;3.50;0.85;;;20.00;61.60;;;;;;5013605;28;20054;-74
2022/05/11 01:31:08;;;;;;;1.83;0.65;;;20.00;61.60;;;;;;4996172;28;20021;-74
2022/05/11 01:33:34;;;;;;;1.08;0.55;;;20.00;61.50;;;;;;5012194;28;20021;-74
2022/05/11 01:36:28;;;;;;;2.53;0.70;;;20.00;61.60;;;;;;5012111;28;20101;-74
2022/05/11 01:38:59;;;;;;;1.30;0.80;;;20.00;61.50;;;;;;5012782;28;20026;-74
2022/05/11 01:41:54;;;;;;;1.38;0.65;;;20.00;61.60;;;;;;4996005;28;20049;-74
2022/05/11 01:44:20;;;;;;;1.15;0.60;;;20.00;61.50;;;;;;5011413;28;20843;-74
2022/05/11 01:46:48;;;;;;;2.10;0.75;;;19.90;61.60;;;;;;5011876;28;20029;-74
2022/05/11 01:49:14;;;;;;;1.42;0.77;;;20.00;61.60;;;;;;4995711;28;20479;-74
2022/05/11 01:51:40;;;;;;;1.67;0.63;;;20.00;61.60;;;;;;5011887;28;20014;-74
2022/05/11 01:54:05;;;;;;;1.55;0.73;;;20.00;61.50;;;;;;5011808;28;20088;-74
2022/05/11 01:56:31;;;;;;;1.00;0.68;;;20.00;61.60;;;;;;5011809;28;20491;-74
2022/05/11 01:58:57;;;;;;;1.75;0.80;;;20.00;61.50;;;;;;5011887;28;20033;-74
2022/05/11 02:01:24;;;;;;;1.75;0.90;;;20.00;61.50;;;;;;5012881;28;20061;-74
2022/05/11 02:03:50;;;;;;;1.55;0.80;;;19.90;61.50;;;;;;5011742;28;20030;-74
2022/05/11 02:09:00;;;;;;;2.05;0.73;;;19.90;61.50;;;;;;4998152;28;20543;-74
2022/05/11 02:11:26;;;;;;;1.70;0.80;;;19.90;61.50;;;;;;5012870;28;20022;-74
2022/05/11 02:13:52;;;;;;;1.10;0.80;;;19.90;61.50;;;;;;5011743;28;20121;-74
2022/05/11 02:16:18;;;;;;;2.10;0.98;;;19.90;61.50;;;;;;5012620;28;20029;-75
2022/05/11 02:18:43;;;;;;;1.67;0.70;;;19.90;61.50;;;;;;5011505;28;20034;-74
2022/05/11 02:21:09;;;;;;;1.15;0.70;;;19.90;61.40;;;;;;5012380;28;20018;-74
2022/05/11 02:23:35;;;;;;;1.55;0.70;;;19.90;61.50;;;;;;4995190;28;20067;-74
2022/05/11 02:26:01;;;;;;;2.03;0.93;;;19.90;61.40;;;;;;4995355;28;20098;-74
2022/05/11 02:28:27;;;;;;;0.50;0.50;;;19.90;61.40;;;;;;5012605;28;20108;-74
2022/05/11 02:30:53;;;;;;;0.77;0.52;;;19.90;61.40;;;;;;5011461;28;20445;-74
2022/05/11 02:33:20;;;;;;;1.45;0.80;;;19.90;61.40;;;;;;5016411;28;20026;-74
2022/05/11 02:35:45;;;;;;;1.30;0.70;;;19.90;61.40;;;;;;4999104;28;20534;-74
2022/05/11 02:38:15;;;;;;;1.15;0.80;;;19.90;61.40;;;;;;5015261;28;20034;-74
2022/05/11 02:40:41;;;;;;;1.50;0.70;;;19.90;61.40;;;;;;5015405;28;20088;-74
2022/05/11 02:43:08;;;;;;;1.33;0.70;;;19.90;61.40;;;;;;5015012;28;20046;-74
2022/05/11 02:45:34;;;;;;;0.90;0.68;;;19.90;61.40;;;;;;4999166;28;20484;-74
2022/05/11 02:48:02;;;;;;;2.15;0.95;;;19.90;61.30;;;;;;4999018;28;20041;-74
2022/05/11 02:50:31;;;;;;;1.40;0.82;;;19.90;61.30;;;;;;5015060;28;20024;-74
2022/05/11 02:52:56;;;;;;;1.25;0.70;;;19.80;61.30;;;;;;5015090;28;20034;-74
2022/05/11 02:55:22;;;;;;;1.98;0.93;;;19.80;61.30;;;;;;5015028;28;20069;-74
2022/05/11 02:57:48;;;;;;;1.27;0.77;;;19.90;61.40;;;;;;5015076;28;20057;-74
2022/05/11 03:00:15;;;;;;;0.70;0.50;;;19.80;61.20;;;;;;5014848;28;20021;-74
2022/05/11 03:02:41;;;;;;;1.13;0.80;;;19.90;61.30;;;;;;4998817;28;20507;-74
2022/05/11 03:05:07;;;;;;;2.67;0.95;;;19.90;61.30;;;;;;5014708;28;20057;-74
2022/05/11 03:07:33;;;;;;;2.28;0.70;;;19.90;61.30;;;;;;5014883;28;20083;-74
2022/05/11 03:09:59;;;;;;;0.88;0.73;;;19.90;61.30;;;;;;5014904;28;20097;-74
2022/05/11 03:12:24;;;;;;;0.85;0.70;;;19.80;61.20;;;;;;5014812;28;20049;-74
2022/05/11 03:14:50;;;;;;;2.05;0.80;;;19.90;62.40;;;;;;5014680;28;20076;-74
2022/05/11 03:17:16;;;;;;;1.20;0.70;;;19.80;61.20;;;;;;5014592;28;20552;-74
2022/05/11 03:19:42;;;;;;;1.35;0.85;;;19.90;61.30;;;;;;4998148;28;20053;-74
2022/05/11 03:22:09;;;;;;;0.90;0.60;;;19.90;61.30;;;;;;5014577;28;20053;-74
2022/05/11 03:24:35;;;;;;;1.35;0.82;;;19.80;61.20;;;;;;4998391;28;20026;-74
2022/05/11 03:27:01;;;;;;;0.68;0.57;;;19.80;61.20;;;;;;5014381;28;20025;-74
2022/05/11 03:29:26;;;;;;;1.98;0.73;;;19.80;61.20;;;;;;5014416;28;20018;-74
2022/05/11 03:34:36;;;;;;;2.72;1.00;;;19.80;61.20;;;;;;5014509;28;20040;-74
2022/05/11 03:37:02;;;;;;;1.10;0.90;;;19.80;61.20;;;;;;4997798;28;20026;-74
2022/05/11 03:39:28;;;;;;;1.35;0.68;;;19.80;61.20;;;;;;5030735;28;20026;-74
2022/05/11 03:41:54;;;;;;;1.92;0.80;;;19.80;61.20;;;;;;5015384;28;20025;-74
2022/05/11 03:44:19;;;;;;;1.38;0.80;;;19.80;61.20;;;;;;5012276;28;20451;-74
2022/05/11 03:46:45;;;;;;;2.17;1.13;;;19.80;61.20;;;;;;5015413;28;20022;-74
2022/05/11 03:49:11;;;;;;;0.75;0.75;;;19.80;61.10;;;;;;5015178;28;20072;-74
2022/05/11 03:51:36;;;;;;;1.23;0.85;;;19.80;61.10;;;;;;5015092;28;20022;-74
2022/05/11 03:54:02;;;;;;;1.30;0.90;;;19.80;61.20;;;;;;4997607;28;20057;-74
2022/05/11 03:56:28;;;;;;;1.52;0.77;;;19.70;61.10;;;;;;5015045;28;20101;-74
2022/05/11 03:58:56;;;;;;;1.08;0.60;;;19.80;61.20;;;;;;5014951;28;20404;-74
2022/05/11 04:01:21;;;;;;;2.63;1.00;;;19.80;61.10;;;;;;5014985;28;20025;-74
2022/05/11 04:03:47;;;;;;;1.05;0.80;;;19.70;61.10;;;;;;5013618;28;20042;-74
2022/05/11 04:06:13;;;;;;;3.42;0.80;;;19.80;61.10;;;;;;5014719;28;20392;-74
2022/05/11 04:08:39;;;;;;;1.10;0.57;;;19.80;61.10;;;;;;4997543;28;20088;-74
2022/05/11 04:11:05;;;;;;;1.45;0.80;;;19.80;61.10;;;;;;5013642;28;20033;-74
2022/05/11 04:13:30;;;;;;;1.65;0.90;;;19.70;61.00;;;;;;5014788;28;20038;-74
2022/05/11 04:15:56;;;;;;;1.30;0.80;;;19.70;61.00;;;;;;4997352;28;20018;-74
2022/05/11 04:18:22;;;;;;;1.73;0.93;;;19.80;61.10;;;;;;4996877;28;20468;-74
2022/05/11 04:20:47;;;;;;;0.88;0.75;;;19.70;61.00;;;;;;4997087;28;20104;-74
2022/05/11 04:23:13;;;;;;;1.52;0.93;;;19.70;61.10;;;;;;5013271;28;20030;-74
2022/05/11 04:25:39;;;;;;;0.60;0.60;;;19.70;61.00;;;;;;5013332;28;20022;-74
2022/05/11 04:28:11;;;;;;;1.63;0.68;;;19.70;61.10;;;;;;4997008;28;20365;-74
2022/05/11 04:30:37;;;;;;;1.35;0.85;;;19.70;61.00;;;;;;5013427;28;20018;-74
2022/05/11 04:33:03;;;;;;;1.55;0.93;;;19.70;61.10;;;;;;4996759;28;20026;-74
2022/05/11 04:35:31;;;;;;;1.45;0.60;;;19.70;61.00;;;;;;5012998;28;20026;-74
2022/05/11 04:37:58;;;;;;;3.35;1.23;;;19.70;61.10;;;;;;5014420;28;20048;-74
2022/05/11 04:40:24;;;;;;;1.63;0.82;;;19.70;61.00;;;;;;5013074;28;20038;-74
2022/05/11 04:42:50;;;;;;;1.73;0.85;;;19.70;61.10;;;;;;5012683;28;20029;-74
2022/05/11 04:45:15;;;;;;;0.68;0.65;;;19.70;61.00;;;;;;4996643;28;20570;-74
2022/05/11 04:47:41;;;;;;;0.93;0.70;;;19.70;61.10;;;;;;5014273;28;20026;-74
2022/05/11 04:50:07;;;;;;;0.80;0.80;;;19.70;61.00;;;;;;5012844;28;20034;-74
2022/05/11 04:52:33;;;;;;;1.42;0.80;;;19.70;61.00;;;;;;5013051;28;20018;-74
2022/05/11 04:54:59;;;;;;;1.05;0.68;;;19.70;61.00;;;;;;5012423;28;20105;-74
2022/05/11 04:57:25;;;;;;;1.92;0.95;;;19.70;61.00;;;;;;4996480;28;20499;-74
2022/05/11 04:59:51;;;;;;;1.88;0.70;;;19.70;61.00;;;;;;5013787;28;20033;-74
2022/05/11 05:02:27;;;;;;;2.33;0.90;;;19.70;61.00;;;;;;5012536;28;20033;-74
2022/05/11 05:04:57;;;;;;;1.15;0.80;;;19.70;60.90;;;;;;5012804;28;20122;-74
2022/05/11 05:07:23;;;;;;;1.17;0.65;;;19.70;61.00;;;;;;5013773;28;20487;-74
2022/05/11 05:09:48;;;;;;;2.33;0.88;;;19.70;61.00;;;;;;5013636;28;20064;-74
2022/05/11 05:12:14;;;;;;;1.70;0.90;;;19.70;61.00;;;;;;5013660;28;20104;-74
2022/05/11 05:14:42;;;;;;;2.08;0.82;;;19.60;60.90;;;;;;5013367;28;20105;-74
2022/05/11 05:17:09;;;;;;;1.00;0.70;;;19.70;60.90;;;;;;5012580;28;20076;-74
2022/05/11 05:19:37;;;;;;;1.30;0.90;;;19.70;61.00;;;;;;4996178;28;20018;-74
2022/05/11 05:22:03;;;;;;;1.88;0.73;;;19.70;61.00;;;;;;5012320;28;20018;-74
2022/05/11 05:24:30;;;;;;;2.17;0.88;;;19.60;60.90;;;;;;5013534;28;20079;-74
2022/05/11 05:26:56;;;;;;;2.42;1.00;;;19.60;60.90;;;;;;5013424;28;20022;-74
2022/05/11 05:32:06;;;;;;;1.23;0.73;;;19.60;60.90;;;;;;5012529;28;20522;-74
2022/05/11 05:34:31;;;;;;;2.10;0.80;;;19.60;60.90;;;;;;5012145;28;20092;-74
2022/05/11 05:36:57;;;;;;;1.13;0.63;;;19.60;60.90;;;;;;5012095;28;20447;-74
2022/05/11 05:39:22;;;;;;;2.08;1.00;;;19.60;60.90;;;;;;5012109;28;20557;-74
2022/05/11 05:41:48;;;;;;;2.53;0.90;;;19.60;60.90;;;;;;5013354;28;20030;-74
2022/05/11 05:44:14;;;;;;;1.77;0.88;;;19.60;60.90;;;;;;5012377;28;20044;-74
2022/05/11 05:46:39;;;;;;;0.95;0.77;;;19.60;60.90;;;;;;5013109;28;20030;-74
2022/05/11 05:49:06;;;;;;;2.40;0.80;;;19.60;60.80;;;;;;5012128;28;20046;-74
2022/05/11 05:51:32;;;;;;;3.70;1.00;;;19.60;60.90;;;;;;5013064;28;20396;-74
2022/05/11 05:53:57;;;;;;;2.05;1.02;;;19.60;60.80;;;;;;5011916;28;20472;-74
2022/05/11 05:56:23;;;;;;;2.38;0.93;;;19.60;60.80;;;;;;5011752;28;20065;-74
2022/05/11 05:58:49;;;;;;;3.60;1.25;;;19.60;60.90;;;;;;5011501;28;20480;-74
2022/05/11 06:01:16;;;;;;;1.70;0.93;;;19.60;60.80;;;;;;5011887;28;20110;-74
2022/05/11 06:03:44;;;;;;;2.58;1.00;;;19.60;60.80;;;;;;5011741;28;20030;-74
2022/05/11 06:06:10;;;;;;;3.97;1.08;;;19.60;60.80;;;;;;4994994;28;20396;-74
2022/05/11 06:08:36;;;;;;;3.30;1.20;;;19.60;60.80;;;;;;5011819;28;20022;-74
2022/05/11 06:11:02;;;;;;;1.92;1.00;;;19.60;60.80;;;;;;5011735;28;20021;-74
2022/05/11 06:13:28;;;;;;;2.83;0.70;;;19.60;60.80;;;;;;4978878;28;20473;-74
2022/05/11 06:15:54;;;;;;;1.92;0.98;;;19.50;60.80;;;;;;5011651;28;20026;-74
2022/05/11 06:18:21;;;;;;;2.58;0.75;;;19.50;60.70;;;;;;4995258;28;20037;-74
2022/05/11 06:20:51;;;;;;;2.05;0.95;;;19.50;60.70;;;;;;5012784;28;20025;-74
2022/05/11 06:23:17;;;;;;;1.10;0.90;;;19.50;60.70;;;;;;5012692;28;20123;-74
2022/05/11 06:25:43;;;;;;;2.25;0.82;;;19.50;60.70;;;;;;4995379;28;20484;-74
2022/05/11 06:28:08;;;;;;;1.63;0.60;;;19.50;60.70;;;;;;5011215;28;20084;-74
2022/05/11 06:30:34;;;;;;;1.92;0.80;;;19.50;60.70;;;;;;5012657;28;20149;-74
2022/05/11 06:33:00;;;;;;;2.50;0.95;;;19.50;60.70;;;;;;4995232;28;20026;-74
2022/05/11 06:35:27;;;;;;;3.00;1.05;;;19.50;60.70;;;;;;5011325;28;20032;-74
2022/05/11 06:37:54;;;;;;;2.03;0.98;;;19.50;60.80;;;;;;5011545;28;20066;-74
2022/05/11 06:40:20;;;;;;;2.40;0.95;;;19.50;60.70;;;;;;4995151;28;20018;-74
2022/05/11 06:42:47;;;;;;;1.92;0.80;;;19.50;60.70;;;;;;4994697;28;20037;-74
2022/05/11 06:45:12;;;;;;;3.08;1.15;;;19.50;60.70;;;;;;5011113;28;20022;-74
2022/05/11 06:47:38;;;;;;;1.55;0.80;;;19.50;60.80;;;;;;5012557;28;20041;-74
2022/05/11 06:50:04;;;;;;;1.67;0.88;;;19.50;60.70;;;;;;5011140;28;20033;-74
2022/05/11 06:52:29;;;;;;;1.13;0.73;;;19.50;60.70;;;;;;5011052;28;20396;-74
2022/05/11 07:00:28;;;;;;;1.85;0.98;;;19.50;60.70;;;;;;4997583;28;20045;-74
2022/05/11 07:02:53;;;;;;;0.98;0.70;;;19.50;60.80;;;;;;4995436;28;20105;-74
2022/05/11 07:05:19;;;;;;;1.67;0.98;;;19.50;60.90;;;;;;5012375;28;20096;-74
2022/05/11 07:07:45;;;;;;;2.55;1.00;;;19.50;60.80;;;;;;5011277;28;20391;-74
2022/05/11 07:10:11;;;;;;;1.02;0.60;;;19.50;60.80;;;;;;5011151;28;20502;-74
2022/05/11 07:12:38;;;;;;;1.75;0.73;;;19.50;60.80;;;;;;5012121;28;20092;-74
2022/05/11 07:15:05;;;;;;;1.25;0.85;;;19.50;60.80;;;;;;5010913;28;20026;-74
2022/05/11 07:17:35;;;;;;;2.53;0.82;;;19.50;60.80;;;;;;4995457;28;20041;-74
2022/05/11 07:20:34;;;;;;;1.80;0.70;;;19.50;60.80;;;;;;5014733;28;20069;-74
2022/05/11 07:23:01;;;;;;;1.75;1.08;;;19.50;60.80;;;;;;5014610;28;20488;-74
2022/05/11 07:25:27;;;;;;;2.13;1.00;;;19.50;60.90;;;;;;4997900;28;20097;-74
2022/05/11 07:27:53;;;;;;;1.17;0.80;;;19.50;60.90;;;;;;5014807;28;20022;-74
2022/05/11 07:30:26;;;;;;;1.67;0.80;;;19.50;60.90;;;;;;4998163;28;20076;-74
2022/05/11 07:32:51;;;;;;;2.78;1.02;;;19.50;60.80;;;;;;5014425;28;20033;-74
2022/05/11 07:35:17;;;;;;;2.25;0.95;;;19.50;60.90;;;;;;5015559;28;20059;-74
2022/05/11 07:37:46;;;;;;;1.13;0.95;;;19.50;60.90;;;;;;4998023;28;20037;-74
2022/05/11 07:40:12;;;;;;;1.38;0.80;;;19.50;60.90;;;;;;5015249;28;20546;-74
2022/05/11 07:42:38;;;;;;;2.13;0.98;;;19.50;60.90;;;;;;5014071;28;20060;-73
2022/05/11 07:45:04;;;;;;;1.08;0.70;;;19.50;60.90;;;;;;5015079;28;20056;-74
2022/05/11 07:47:29;;;;;;;2.00;1.02;;;19.50;60.90;;;;;;5015212;28;20519;-74
2022/05/11 07:49:55;;;;;;;0.75;0.75;;;19.50;60.90;;;;;;4998069;28;20543;-74
2022/05/11 07:52:21;;;;;;;1.42;0.80;;;19.50;60.90;;;;;;5014126;28;20050;-74
2022/05/11 07:54:46;;;;;;;1.00;0.60;;;19.50;60.90;;;;;;5015026;28;20028;-74
2022/05/11 07:59:57;;;;;;;1.58;1.00;;;19.50;60.90;;;;;;5014230;28;20539;-74
2022/05/11 08:02:31;;;;;;;1.58;0.88;;;19.50;60.90;;;;;;5013605;28;20128;-74
2022/05/11 08:04:58;;;;;;;1.25;0.77;;;19.50;61.00;;;;;;4998357;28;20029;-74
2022/05/11 08:07:29;;;;;;;1.52;0.93;;;19.50;61.00;;;;;;4997549;28;20484;-74
2022/05/11 08:09:59;;;;;;;1.27;0.70;;;19.50;60.90;;;;;;4998037;28;20029;-74
2022/05/11 08:12:25;;;;;;;1.58;0.70;;;19.50;60.90;;;;;;5013480;28;20469;-74
2022/05/11 08:14:50;;;;;;;1.67;0.80;;;19.50;60.90;;;;;;5013772;28;20022;-74
2022/05/11 08:17:26;;;;;;;1.20;0.60;;;19.50;60.90;;;;;;4997462;28;20524;-74
2022/05/11 08:19:51;;;;;;;1.50;0.70;;;19.50;60.90;;;;;;5013646;28;20472;-74
2022/05/11 08:22:18;;;;;;;1.25;0.70;;;19.50;60.90;;;;;;5013394;28;20025;-74
2022/05/11 08:24:45;;;;;;;1.95;0.90;;;19.40;60.90;;;;;;5014349;28;20026;-74
2022/05/11 08:27:11;;;;;;;2.88;0.95;;;19.50;60.90;;;;;;5014607;28;20022;-74
2022/05/11 08:35:05;;;;;;;1.10;0.93;;;19.40;62.00;;;;;;5014331;28;20049;-74
2022/05/11 08:37:31;;;;;;;2.35;1.23;;;19.40;61.00;;;;;;5014070;28;20022;-74
2022/05/11 08:39:56;;;;;;;2.53;0.93;;;19.40;61.00;;;;;;4997062;28;20492;-74
2022/05/11 08:42:22;;;;;;;1.35;0.70;;;19.40;60.90;;;;;;5013091;28;20104;-74
2022/05/11 08:44:48;;;;;;;1.40;0.75;;;19.40;60.90;;;;;;5012637;28;20063;-74
2022/05/11 08:47:30;;;;;;;2.03;0.85;;;19.40;61.00;;;;;;5013081;28;20018;-74
2022/05/11 08:50:24;;;;;;;1.13;0.70;;;19.40;60.90;;;;;;5014205;28;20108;-74
2022/05/11 08:52:52;;;;;;;1.10;0.77;;;19.50;60.90;;;;;;5011541;28;20037;-74
2022/05/11 08:55:38;;;;;;;2.50;0.80;;;19.40;61.00;;;;;;5012753;28;20026;-74
2022/05/11 08:58:11;;;;;;;1.10;0.70;;;19.50;61.00;;;;;;5013495;28;20408;-74
2022/05/11 09:00:39;;;;;;;1.75;0.80;;;19.50;61.10;;;;;;4996854;28;20041;-74
2022/05/11 09:03:11;;;;;;;2.08;0.98;;;19.40;61.10;;;;;;4996445;28;20026;-74
2022/05/11 09:05:36;;;;;;;2.28;0.80;;;19.40;61.00;;;;;;5012594;28;20029;-74
2022/05/11 09:08:04;;;;;;;1.35;0.70;;;19.40;61.00;;;;;;5012476;28;20034;-74
2022/05/11 09:10:32;;;;;;;0.82;0.80;;;19.40;61.00;;;;;;4996571;28;20033;-74
2022/05/11 09:13:06;;;;;;;1.55;0.93;;;19.40;61.00;;;;;;5012450;28;20049;-74
2022/05/11 09:15:55;;;;;;;1.98;0.90;;;19.40;61.00;;;;;;5012571;28;20062;-74
2022/05/11 09:18:21;;;;;;;2.22;0.80;;;19.50;60.90;;;;;;5013544;28;20030;-74
2022/05/11 09:20:52;;;;;;;2.33;0.90;;;19.40;61.10;;;;;;5012191;28;20403;-74
2022/05/11 09:23:36;;;;;;;2.92;0.88;;;19.40;61.00;;;;;;5012385;28;20029;-74
2022/05/11 09:26:03;;;;;;;2.78;1.00;;;19.40;61.00;;;;;;4996744;28;20022;-74
2022/05/11 09:28:31;;;;;;;2.38;1.20;;;19.40;61.00;;;;;;5013440;28;20022;-74
2022/05/11 09:31:12;;;;;;;1.08;0.70;;;19.40;61.00;;;;;;4996068;28;20028;-74
2022/05/11 09:33:42;;;;;;;1.30;0.82;;;19.40;61.00;;;;;;5013352;28;20028;-74
2022/05/11 09:36:09;;;;;;;1.95;0.77;;;19.40;61.00;;;;;;5013141;28;20105;-74
2022/05/11 09:38:42;;;;;;;1.48;0.75;;;19.40;61.00;;;;;;5012218;28;20109;-74
2022/05/11 09:41:21;;;;;;;2.92;1.02;;;19.40;61.00;;;;;;5012138;28;20022;-74
2022/05/11 09:43:51;;;;;;;4.28;1.10;;;19.40;61.00;;;;;;4996657;28;20056;-74
2022/05/11 09:46:29;;;;;;;1.75;0.82;;;19.40;61.00;;;;;;5013271;28;20412;-74
2022/05/11 09:48:58;;;;;;;2.15;1.00;;;19.40;61.00;;;;;;5011946;28;20022;-74
2022/05/11 09:51:50;;;;;;;1.85;0.93;;;19.40;61.10;;;;;;5012916;28;20036;-74
2022/05/11 09:54:57;;;;;;;2.38;0.90;;;19.40;61.00;;;;;;5011856;28;20022;-74
2022/05/11 09:57:27;;;;;;;2.50;1.10;;;19.40;61.00;;;;;;5008295;28;20069;-74
2022/05/11 09:59:56;;;;;;;2.42;1.05;;;19.30;61.10;;;;;;5011920;28;20119;-74
2022/05/11 10:02:34;;;;;;;2.47;1.25;;;19.30;61.10;;;;;;4995945;28;20026;-74
2022/05/11 10:05:11;;;;;;;2.08;0.80;;;19.40;61.00;;;;;;5011642;28;20045;-74
2022/05/11 10:07:48;;;;;;;1.75;0.82;;;19.40;61.10;;;;;;4995900;28;20014;-74
2022/05/11 10:10:32;;;;;;;1.50;0.85;;;19.40;61.10;;;;;;4996870;28;20021;-74
2022/05/11 10:13:19;;;;;;;2.80;0.95;;;19.40;61.10;;;;;;5011772;28;20048;-74
2022/05/11 10:22:03;;;;;;;2.92;1.20;;;19.40;61.10;;;;;;5012948;28;20457;-74
2022/05/11 10:24:59;;;;;;;1.95;0.85;;;19.40;61.00;;;;;;5000639;28;20125;-74
2022/05/11 10:27:34;;;;;;;2.53;0.85;;;19.40;61.10;;;;;;5012524;28;20030;-74
2022/05/11 10:30:23;;;;;;;1.58;1.02;;;19.40;61.20;;;;;;5011569;28;20025;-74
2022/05/11 10:33:02;;;;;;;1.67;0.73;;;19.40;61.00;;;;;;5011396;28;20044;-74
2022/05/11 10:35:46;;;;;;;1.38;0.90;;;19.30;61.20;;;;;;5011064;28;20029;-74
2022/05/11 10:38:23;;;;;;;3.00;0.98;;;19.40;61.10;;;;;;5012394;28;20496;-74
2022/05/11 10:40:49;;;;;;;1.67;0.95;;;19.40;61.20;;;;;;5012505;28;20018;-74
2022/05/11 10:43:43;;;;;;;1.60;0.90;;;19.30;61.10;;;;;;5012260;28;20129;-74
2022/05/11 10:46:35;;;;;;;2.63;0.80;;;19.40;61.00;;;;;;5009523;28;20488;-74
2022/05/11 10:49:19;;;;;;;1.80;0.95;;;19.30;61.20;;;;;;4990528;28;20046;-74
2022/05/11 10:52:14;;;;;;;1.85;0.82;;;19.40;61.10;;;;;;4990633;28;20030;-74
2022/05/11 10:55:16;;;;;;;1.23;1.05;;;19.40;61.00;;;;;;4963256;28;20088;-74
2022/05/11 10:58:05;;;;;;;1.65;0.90;;;19.40;61.10;;;;;;4994299;28;20034;-74
2022/05/11 11:00:32;;;;;;;3.53;0.95;;;19.40;61.10;;;;;;4994338;28;20038;-74
2022/05/11 11:03:04;;;;;;;2.30;1.15;;;19.30;61.20;;;;;;4961877;28;20033;-74
2022/05/11 11:05:33;;;;;;;2.23;1.10;;;19.40;61.20;;;;;;4994105;28;20033;-74
2022/05/11 11:08:28;;;;;;;2.22;0.90;;;19.40;61.20;;;;;;4978119;28;20030;-74
2022/05/11 11:11:22;;;;;;;1.20;0.93;;;19.40;61.20;;;;;;4989445;28;20034;-74
2022/05/11 11:13:59;;;;;;;3.08;1.00;;;19.40;61.10;;;;;;4977823;28;20424;-74
2022/05/11 11:16:32;;;;;;;2.03;0.70;;;19.30;61.20;;;;;;4994183;28;20080;-74
2022/05/11 11:18:57;;;;;;;;;;;19.30;61.20;;;;;;4963038;28;20047;-74
2022/05/11 11:21:23;;;;;;;2.30;0.88;;;19.30;61.10;;;;;;4994286;28;19913;-74
2022/05/11 11:24:22;;;;;;;2.90;0.85;;;19.30;61.50;;;;;;4977793;28;20583;-74
2022/05/11 11:26:57;;;;;;;1.52;0.70;;;19.40;61.20;;;;;;5013435;28;20030;-74
2022/05/11 11:29:31;;;;;;;1.60;0.85;;;19.30;61.30;;;;;;5014502;28;20014;-74
2022/05/11 11:31:57;;;;;;;0.85;0.60;;;19.30;61.30;;;;;;4998130;28;20026;-74
2022/05/11 11:34:25;;;;;;;1.05;0.70;;;19.40;61.30;;;;;;5015536;28;20029;-74
2022/05/11 11:36:51;;;;;;;1.92;1.10;;;19.30;62.20;;;;;;4998413;28;20032;-74
2022/05/11 11:39:54;;;;;;;1.27;0.90;;;19.40;61.20;;;;;;5014301;28;20029;-74
2022/05/11 11:42:39;;;;;;;1.50;0.88;;;19.40;61.10;;;;;;5015440;28;20025;-74
2022/05/11 11:45:10;;;;;;;1.88;1.02;;;19.40;61.10;;;;;;4997586;28;20504;-74
2022/05/11 11:47:42;;;;;;;0.77;0.73;;;19.40;61.20;;;;;;5013740;28;20025;-74
2022/05/11 11:50:29;;;;;;;1.27;0.68;;;19.40;61.20;;;;;;5014311;28;20026;-74
2022/05/11 11:53:21;;;;;;;1.42;0.95;;;19.40;61.20;;;;;;4999814;28;20037;-74
2022/05/11 11:55:47;;;;;;;1.92;0.93;;;19.40;61.20;;;;;;5000034;28;20526;-74
2022/05/11 11:58:30;;;;;;;2.53;0.98;;;19.40;61.30;;;;;;4997641;28;20034;-74
2022/05/11 12:01:03;;;;;;;;;;;19.40;61.10;;;;;;4997870;28;20017;-74
2022/05/11 12:03:32;;;;;;;1.05;0.95;;;19.30;61.20;;;;;;5013266;28;19935;-74
2022/05/11 12:15:01;;;;;;;0.88;0.73;;;19.30;61.50;;;;;;5013146;28;20365;-74
2022/05/11 12:17:27;;;;;;;2.33;0.75;;;19.40;61.40;;;;;;5000870;28;20068;-74
2022/05/11 12:19:58;;;;;;;1.70;0.85;;;19.30;61.30;;;;;;4997924;28;20026;-74
2022/05/11 12:22:25;;;;;;;0.98;0.65;;;19.40;61.30;;;;;;5013444;28;20824;-74
2022/05/11 12:25:11;;;;;;;1.15;0.80;;;19.40;61.30;;;;;;4981224;28;20104;-74
2022/05/11 12:27:38;;;;;;;1.80;1.00;;;19.40;61.10;;;;;;5013263;28;20037;-74
2022/05/11 12:30:07;;;;;;;2.08;0.93;;;19.40;61.30;;;;;;4996948;28;20018;-74
2022/05/11 12:32:38;;;;;;;1.05;0.60;;;19.40;61.20;;;;;;5013268;28;20030;-74
2022/05/11 12:35:18;;;;;;;2.03;0.80;;;19.40;61.80;;;;;;5013290;28;20017;-74
2022/05/11 12:37:52;;;;;;;1.70;0.82;;;19.40;61.20;;;;;;5013231;28;20104;-74
2022/05/11 12:40:19;;;;;;;0.93;0.60;;;19.40;61.20;;;;;;5013155;28;20022;-74
2022/05/11 12:42:45;;;;;;;1.52;0.73;;;19.40;61.20;;;;;;5013952;28;20036;-74
2022/05/11 12:45:13;;;;;;;2.17;1.10;;;19.40;61.20;;;;;;5012734;28;20105;-74
2022/05/11 12:47:50;;;;;;;1.08;0.80;;;19.40;61.20;;;;;;4980467;28;20060;-74
2022/05/11 12:50:25;;;;;;;2.10;0.82;;;19.40;61.10;;;;;;4981859;28;20024;-74
2022/05/11 12:53:15;;;;;;;0.80;0.75;;;19.50;61.20;;;;;;5012965;28;20045;-74
2022/05/11 12:55:41;;;;;;;2.40;1.10;;;19.50;61.10;;;;;;5013956;28;20028;-74
2022/05/11 12:58:07;;;;;;;2.42;0.85;;;19.40;61.20;;;;;;5012881;28;20058;-74
2022/05/11 13:00:33;;;;;;;0.85;0.70;;;19.40;61.20;;;;;;5012668;28;20057;-74
2022/05/11 13:03:00;;;;;;;1.00;0.77;;;19.40;61.20;;;;;;5012671;28;20056;-74
2022/05/11 13:05:25;;;;;;;1.80;0.90;;;19.50;61.20;;;;;;5012641;28;20018;-74
2022/05/11 13:07:59;;;;;;;2.03;0.80;;;19.50;61.20;;;;;;4996269;28;20396;-74
2022/05/11 13:10:35;;;;;;;0.98;0.70;;;19.50;61.20;;;;;;5012496;28;20022;-74
2022/05/11 13:13:02;;;;;;;0.85;0.70;;;19.50;61.20;;;;;;5012265;28;20113;-74
2022/05/11 13:15:52;;;;;;;2.72;0.70;;;19.50;61.20;;;;;;5012241;28;20056;-74
2022/05/11 13:18:25;;;;;;;1.60;0.60;;;19.50;61.20;;;;;;5013597;28;20026;-74
2022/05/11 13:20:52;;;;;;;2.13;0.93;;;19.50;61.20;;;;;;5013606;28;20476;-74
2022/05/11 13:23:31;;;;;;;0.70;0.70;;;19.50;61.30;;;;;;4995894;28;20034;-74
2022/05/11 13:25:58;;;;;;;1.38;0.77;;;19.50;61.20;;;;;;5013509;28;20514;-74
2022/05/11 13:28:32;;;;;;;0.90;0.70;;;19.50;61.30;;;;;;4995891;28;20076;-74
2022/05/11 13:31:02;;;;;;;2.10;1.10;;;19.50;61.20;;;;;;4996403;28;20041;-74
2022/05/11 13:33:35;;;;;;;1.08;0.77;;;19.50;61.20;;;;;;5012357;28;20022;-74
2022/05/11 13:36:16;;;;;;;1.55;0.70;;;19.50;61.20;;;;;;5013412;28;20030;-74
2022/05/11 13:38:55;;;;;;;3.15;0.88;;;19.50;61.20;;;;;;4996009;28;20030;-74
2022/05/11 13:41:31;;;;;;;1.42;0.68;;;19.50;61.20;;;;;;5012253;28;20397;-74
2022/05/11 13:43:59;;;;;;;1.05;0.80;;;19.50;61.30;;;;;;4995791;28;20057;-74